sensor_id;sensor_type;location;lat;lon;timestamp;P1;durP1;ratioP1;P2;durP2;ratioP2
16826;SDS011;8530;49.540;8.576;2023-12-20T00:02:03;13.20;;;11.10;;
16826;SDS011;8530;49.540;8.576;2023-12-20T00:04:30;14.23;;;11.13;;
16826;SDS011;8530;49.540;8.576;2023-12-20T00:06:57;12.53;;;11.17;;
16826;SDS011;8530;49.540;8.576;2023-12-20T00:09:23;14.20;;;11.23;;
16826;SDS011;8530;49.540;8.576;2023-12-20T00:11:51;15.50;;;10.90;;
16826;SDS011;8530;49.540;8.576;2023-12-20T00:14:18;11.63;;;10.03;;
16826;SDS011;8530;49.540;8.576;2023-12-20T00:16:45;12.83;;;11.53;;
16826;SDS011;8530;49.540;8.576;2023-12-20T00:19:12;16.07;;;11.23;;
16826;SDS011;8530;49.540;8.576;2023-12-20T00:21:38;13.50;;;11.73;;
16826;SDS011;8530;49.540;8.576;2023-12-20T00:24:06;15.40;;;10.53;;
16826;SDS011;8530;49.540;8.576;2023-12-20T00:26:33;12.77;;;11.00;;
16826;SDS011;8530;49.540;8.576;2023-12-20T00:29:01;12.67;;;10.03;;
16826;SDS011;8530;49.540;8.576;2023-12-20T00:31:27;13.27;;;10.07;;
16826;SDS011;8530;49.540;8.576;2023-12-20T00:33:54;11.87;;;9.77;;
16826;SDS011;8530;49.540;8.576;2023-12-20T00:36:21;15.47;;;11.57;;
16826;SDS011;8530;49.540;8.576;2023-12-20T00:38:48;14.13;;;11.53;;
16826;SDS011;8530;49.540;8.576;2023-12-20T00:41:15;11.97;;;9.47;;
16826;SDS011;8530;49.540;8.576;2023-12-20T00:43:41;13.17;;;9.27;;
16826;SDS011;8530;49.540;8.576;2023-12-20T00:46:10;13.67;;;10.77;;
16826;SDS011;8530;49.540;8.576;2023-12-20T00:48:37;14.13;;;12.03;;
16826;SDS011;8530;49.540;8.576;2023-12-20T00:51:07;12.50;;;10.13;;
16826;SDS011;8530;49.540;8.576;2023-12-20T00:53:33;17.50;;;10.30;;
16826;SDS011;8530;49.540;8.576;2023-12-20T00:56:01;11.93;;;9.43;;
16826;SDS011;8530;49.540;8.576;2023-12-20T00:58:27;12.17;;;9.10;;
16826;SDS011;8530;49.540;8.576;2023-12-20T01:00:54;10.30;;;9.20;;
16826;SDS011;8530;49.540;8.576;2023-12-20T01:03:22;11.10;;;9.90;;
16826;SDS011;8530;49.540;8.576;2023-12-20T01:05:49;12.37;;;9.63;;
16826;SDS011;8530;49.540;8.576;2023-12-20T01:08:15;11.83;;;9.03;;
16826;SDS011;8530;49.540;8.576;2023-12-20T01:10:42;9.53;;;8.27;;
16826;SDS011;8530;49.540;8.576;2023-12-20T01:13:09;11.30;;;9.47;;
16826;SDS011;8530;49.540;8.576;2023-12-20T01:15:35;10.33;;;8.93;;
16826;SDS011;8530;49.540;8.576;2023-12-20T01:18:02;12.63;;;9.57;;
16826;SDS011;8530;49.540;8.576;2023-12-20T01:20:31;10.67;;;9.57;;
16826;SDS011;8530;49.540;8.576;2023-12-20T01:22:57;10.47;;;8.77;;
16826;SDS011;8530;49.540;8.576;2023-12-20T01:25:24;13.20;;;8.07;;
16826;SDS011;8530;49.540;8.576;2023-12-20T01:27:51;9.13;;;8.23;;
16826;SDS011;8530;49.540;8.576;2023-12-20T01:30:17;7.90;;;7.10;;
16826;SDS011;8530;49.540;8.576;2023-12-20T01:32:44;9.07;;;8.17;;
16826;SDS011;8530;49.540;8.576;2023-12-20T01:35:11;9.20;;;8.20;;
16826;SDS011;8530;49.540;8.576;2023-12-20T01:37:39;9.50;;;8.03;;
16826;SDS011;8530;49.540;8.576;2023-12-20T01:40:06;8.37;;;7.57;;
16826;SDS011;8530;49.540;8.576;2023-12-20T01:42:34;9.70;;;7.87;;
16826;SDS011;8530;49.540;8.576;2023-12-20T01:45:01;11.10;;;8.93;;
16826;SDS011;8530;49.540;8.576;2023-12-20T01:47:28;9.87;;;7.90;;
16826;SDS011;8530;49.540;8.576;2023-12-20T01:49:55;8.43;;;7.30;;
16826;SDS011;8530;49.540;8.576;2023-12-20T01:52:22;7.77;;;6.60;;
16826;SDS011;8530;49.540;8.576;2023-12-20T01:54:52;9.53;;;6.43;;
16826;SDS011;8530;49.540;8.576;2023-12-20T01:57:26;12.53;;;8.00;;
16826;SDS011;8530;49.540;8.576;2023-12-20T01:59:53;9.73;;;6.27;;
16826;SDS011;8530;49.540;8.576;2023-12-20T02:02:19;9.50;;;6.77;;
16826;SDS011;8530;49.540;8.576;2023-12-20T02:04:46;7.20;;;5.70;;
16826;SDS011;8530;49.540;8.576;2023-12-20T02:07:15;8.90;;;6.20;;
16826;SDS011;8530;49.540;8.576;2023-12-20T02:09:44;8.30;;;6.30;;
16826;SDS011;8530;49.540;8.576;2023-12-20T02:12:12;6.00;;;5.40;;
16826;SDS011;8530;49.540;8.576;2023-12-20T02:14:39;7.80;;;6.73;;
16826;SDS011;8530;49.540;8.576;2023-12-20T02:17:06;5.43;;;4.90;;
16826;SDS011;8530;49.540;8.576;2023-12-20T02:19:32;6.63;;;5.90;;
16826;SDS011;8530;49.540;8.576;2023-12-20T02:22:07;6.63;;;5.93;;
16826;SDS011;8530;49.540;8.576;2023-12-20T02:24:35;6.27;;;5.40;;
16826;SDS011;8530;49.540;8.576;2023-12-20T02:27:02;6.20;;;5.50;;
16826;SDS011;8530;49.540;8.576;2023-12-20T02:29:29;5.90;;;5.40;;
16826;SDS011;8530;49.540;8.576;2023-12-20T02:31:57;6.07;;;5.33;;
16826;SDS011;8530;49.540;8.576;2023-12-20T02:34:24;5.73;;;5.23;;
16826;SDS011;8530;49.540;8.576;2023-12-20T02:36:50;5.60;;;5.00;;
16826;SDS011;8530;49.540;8.576;2023-12-20T02:39:19;5.60;;;5.00;;
16826;SDS011;8530;49.540;8.576;2023-12-20T02:41:46;6.00;;;5.37;;
16826;SDS011;8530;49.540;8.576;2023-12-20T02:44:12;6.87;;;5.57;;
16826;SDS011;8530;49.540;8.576;2023-12-20T02:46:39;6.00;;;5.30;;
16826;SDS011;8530;49.540;8.576;2023-12-20T02:49:06;6.27;;;5.67;;
16826;SDS011;8530;49.540;8.576;2023-12-20T02:51:33;6.03;;;4.77;;
16826;SDS011;8530;49.540;8.576;2023-12-20T02:54:00;6.60;;;5.90;;
16826;SDS011;8530;49.540;8.576;2023-12-20T02:56:28;5.77;;;5.20;;
16826;SDS011;8530;49.540;8.576;2023-12-20T02:58:55;6.27;;;5.47;;
16826;SDS011;8530;49.540;8.576;2023-12-20T03:01:21;5.93;;;5.33;;
16826;SDS011;8530;49.540;8.576;2023-12-20T03:03:48;8.40;;;6.73;;
16826;SDS011;8530;49.540;8.576;2023-12-20T03:06:15;6.77;;;6.07;;
16826;SDS011;8530;49.540;8.576;2023-12-20T03:08:43;6.77;;;5.77;;
16826;SDS011;8530;49.540;8.576;2023-12-20T03:11:10;6.73;;;6.03;;
16826;SDS011;8530;49.540;8.576;2023-12-20T03:13:38;7.00;;;6.07;;
16826;SDS011;8530;49.540;8.576;2023-12-20T03:16:07;7.67;;;6.70;;
16826;SDS011;8530;49.540;8.576;2023-12-20T03:18:35;10.73;;;7.20;;
16826;SDS011;8530;49.540;8.576;2023-12-20T03:21:02;9.67;;;8.17;;
16826;SDS011;8530;49.540;8.576;2023-12-20T03:23:29;10.33;;;8.00;;
16826;SDS011;8530;49.540;8.576;2023-12-20T03:25:57;13.70;;;9.93;;
16826;SDS011;8530;49.540;8.576;2023-12-20T03:28:24;13.30;;;9.60;;
16826;SDS011;8530;49.540;8.576;2023-12-20T03:30:52;10.10;;;8.20;;
16826;SDS011;8530;49.540;8.576;2023-12-20T03:33:19;13.90;;;8.83;;
16826;SDS011;8530;49.540;8.576;2023-12-20T03:35:46;11.90;;;9.37;;
16826;SDS011;8530;49.540;8.576;2023-12-20T03:38:12;11.97;;;9.10;;
16826;SDS011;8530;49.540;8.576;2023-12-20T03:40:39;12.83;;;9.43;;
16826;SDS011;8530;49.540;8.576;2023-12-20T03:43:06;11.73;;;9.20;;
16826;SDS011;8530;49.540;8.576;2023-12-20T03:45:33;12.30;;;8.77;;
16826;SDS011;8530;49.540;8.576;2023-12-20T03:48:01;12.17;;;8.27;;
16826;SDS011;8530;49.540;8.576;2023-12-20T03:50:28;11.13;;;9.07;;
16826;SDS011;8530;49.540;8.576;2023-12-20T03:52:55;9.70;;;8.43;;
16826;SDS011;8530;49.540;8.576;2023-12-20T03:55:21;11.20;;;9.30;;
16826;SDS011;8530;49.540;8.576;2023-12-20T03:57:48;11.80;;;9.50;;
16826;SDS011;8530;49.540;8.576;2023-12-20T04:00:15;11.00;;;9.80;;
16826;SDS011;8530;49.540;8.576;2023-12-20T04:02:42;11.47;;;8.73;;
16826;SDS011;8530;49.540;8.576;2023-12-20T04:05:10;11.80;;;9.60;;
16826;SDS011;8530;49.540;8.576;2023-12-20T04:07:37;13.53;;;9.50;;
16826;SDS011;8530;49.540;8.576;2023-12-20T04:10:05;13.97;;;10.80;;
16826;SDS011;8530;49.540;8.576;2023-12-20T04:12:32;12.37;;;9.53;;
16826;SDS011;8530;49.540;8.576;2023-12-20T04:14:59;12.50;;;9.20;;
16826;SDS011;8530;49.540;8.576;2023-12-20T04:17:26;9.73;;;8.50;;
16826;SDS011;8530;49.540;8.576;2023-12-20T04:19:52;13.40;;;9.57;;
16826;SDS011;8530;49.540;8.576;2023-12-20T04:22:20;10.83;;;8.83;;
16826;SDS011;8530;49.540;8.576;2023-12-20T04:24:47;14.13;;;9.27;;
16826;SDS011;8530;49.540;8.576;2023-12-20T04:27:14;12.07;;;9.20;;
16826;SDS011;8530;49.540;8.576;2023-12-20T04:29:40;12.47;;;9.70;;
16826;SDS011;8530;49.540;8.576;2023-12-20T04:32:07;9.73;;;8.17;;
16826;SDS011;8530;49.540;8.576;2023-12-20T04:34:34;9.20;;;8.17;;
16826;SDS011;8530;49.540;8.576;2023-12-20T04:37:01;11.73;;;9.97;;
16826;SDS011;8530;49.540;8.576;2023-12-20T04:39:29;10.60;;;8.87;;
16826;SDS011;8530;49.540;8.576;2023-12-20T04:41:56;11.23;;;9.03;;
16826;SDS011;8530;49.540;8.576;2023-12-20T04:44:22;12.60;;;9.37;;
16826;SDS011;8530;49.540;8.576;2023-12-20T04:46:49;10.40;;;8.77;;
16826;SDS011;8530;49.540;8.576;2023-12-20T04:49:16;10.50;;;8.00;;
16826;SDS011;8530;49.540;8.576;2023-12-20T04:51:43;11.33;;;9.10;;
16826;SDS011;8530;49.540;8.576;2023-12-20T04:54:09;10.87;;;9.23;;
16826;SDS011;8530;49.540;8.576;2023-12-20T04:56:38;11.73;;;8.20;;
16826;SDS011;8530;49.540;8.576;2023-12-20T04:59:04;12.13;;;8.97;;
16826;SDS011;8530;49.540;8.576;2023-12-20T05:01:31;11.40;;;8.80;;
16826;SDS011;8530;49.540;8.576;2023-12-20T05:03:58;9.80;;;8.60;;
16826;SDS011;8530;49.540;8.576;2023-12-20T05:06:25;10.57;;;7.73;;
16826;SDS011;8530;49.540;8.576;2023-12-20T05:08:51;13.10;;;8.93;;
16826;SDS011;8530;49.540;8.576;2023-12-20T05:11:18;12.07;;;8.53;;
16826;SDS011;8530;49.540;8.576;2023-12-20T05:13:46;9.73;;;7.40;;
16826;SDS011;8530;49.540;8.576;2023-12-20T05:16:13;10.37;;;8.30;;
16826;SDS011;8530;49.540;8.576;2023-12-20T05:18:42;10.40;;;8.33;;
16826;SDS011;8530;49.540;8.576;2023-12-20T05:21:09;9.00;;;7.50;;
16826;SDS011;8530;49.540;8.576;2023-12-20T05:23:36;9.97;;;7.23;;
16826;SDS011;8530;49.540;8.576;2023-12-20T05:26:02;8.43;;;7.53;;
16826;SDS011;8530;49.540;8.576;2023-12-20T05:28:29;10.30;;;9.17;;
16826;SDS011;8530;49.540;8.576;2023-12-20T05:30:57;9.03;;;8.17;;
16826;SDS011;8530;49.540;8.576;2023-12-20T05:33:24;10.57;;;8.00;;
16826;SDS011;8530;49.540;8.576;2023-12-20T05:35:51;10.80;;;7.13;;
16826;SDS011;8530;49.540;8.576;2023-12-20T05:38:18;9.40;;;8.00;;
16826;SDS011;8530;49.540;8.576;2023-12-20T05:40:44;12.40;;;7.67;;
16826;SDS011;8530;49.540;8.576;2023-12-20T05:43:11;10.70;;;8.70;;
16826;SDS011;8530;49.540;8.576;2023-12-20T05:45:38;9.50;;;8.60;;
16826;SDS011;8530;49.540;8.576;2023-12-20T05:48:06;11.57;;;8.57;;
16826;SDS011;8530;49.540;8.576;2023-12-20T05:50:33;9.83;;;8.40;;
16826;SDS011;8530;49.540;8.576;2023-12-20T05:53:00;8.50;;;7.70;;
16826;SDS011;8530;49.540;8.576;2023-12-20T05:55:27;9.17;;;7.37;;
16826;SDS011;8530;49.540;8.576;2023-12-20T05:57:54;7.87;;;7.07;;
16826;SDS011;8530;49.540;8.576;2023-12-20T06:00:20;9.33;;;8.37;;
16826;SDS011;8530;49.540;8.576;2023-12-20T06:02:47;8.70;;;7.80;;
16826;SDS011;8530;49.540;8.576;2023-12-20T06:05:15;8.53;;;7.70;;
16826;SDS011;8530;49.540;8.576;2023-12-20T06:07:42;10.30;;;8.23;;
16826;SDS011;8530;49.540;8.576;2023-12-20T06:10:09;8.60;;;7.73;;
16826;SDS011;8530;49.540;8.576;2023-12-20T06:12:36;9.20;;;8.30;;
16826;SDS011;8530;49.540;8.576;2023-12-20T06:15:03;8.00;;;7.20;;
16826;SDS011;8530;49.540;8.576;2023-12-20T06:17:31;10.47;;;8.00;;
16826;SDS011;8530;49.540;8.576;2023-12-20T06:19:57;8.80;;;7.40;;
16826;SDS011;8530;49.540;8.576;2023-12-20T06:22:26;9.43;;;8.43;;
16826;SDS011;8530;49.540;8.576;2023-12-20T06:24:52;11.83;;;8.50;;
16826;SDS011;8530;49.540;8.576;2023-12-20T06:27:19;9.57;;;8.17;;
16826;SDS011;8530;49.540;8.576;2023-12-20T06:29:46;12.03;;;8.70;;
16826;SDS011;8530;49.540;8.576;2023-12-20T06:32:13;9.93;;;8.93;;
16826;SDS011;8530;49.540;8.576;2023-12-20T06:34:39;10.27;;;8.27;;
16826;SDS011;8530;49.540;8.576;2023-12-20T06:37:06;10.43;;;9.23;;
16826;SDS011;8530;49.540;8.576;2023-12-20T06:39:34;10.40;;;8.40;;
16826;SDS011;8530;49.540;8.576;2023-12-20T06:42:02;11.80;;;9.13;;
16826;SDS011;8530;49.540;8.576;2023-12-20T06:44:29;9.97;;;8.97;;
16826;SDS011;8530;49.540;8.576;2023-12-20T06:46:56;12.37;;;10.30;;
16826;SDS011;8530;49.540;8.576;2023-12-20T06:49:23;13.00;;;9.73;;
16826;SDS011;8530;49.540;8.576;2023-12-20T06:51:50;13.67;;;11.00;;
16826;SDS011;8530;49.540;8.576;2023-12-20T06:54:16;14.37;;;12.67;;
16826;SDS011;8530;49.540;8.576;2023-12-20T06:56:44;10.40;;;9.30;;
16826;SDS011;8530;49.540;8.576;2023-12-20T06:59:11;13.33;;;10.00;;
16826;SDS011;8530;49.540;8.576;2023-12-20T07:01:38;18.97;;;9.83;;
16826;SDS011;8530;49.540;8.576;2023-12-20T07:04:05;9.50;;;8.50;;
16826;SDS011;8530;49.540;8.576;2023-12-20T07:06:32;10.37;;;7.60;;
16826;SDS011;8530;49.540;8.576;2023-12-20T07:08:58;7.57;;;6.83;;
16826;SDS011;8530;49.540;8.576;2023-12-20T07:11:25;9.10;;;7.63;;
16826;SDS011;8530;49.540;8.576;2023-12-20T07:13:53;8.70;;;7.50;;
16826;SDS011;8530;49.540;8.576;2023-12-20T07:16:20;10.13;;;7.47;;
16826;SDS011;8530;49.540;8.576;2023-12-20T07:18:47;9.70;;;7.50;;
16826;SDS011;8530;49.540;8.576;2023-12-20T07:21:14;10.97;;;8.70;;
16826;SDS011;8530;49.540;8.576;2023-12-20T07:23:41;15.13;;;8.70;;
16826;SDS011;8530;49.540;8.576;2023-12-20T07:26:08;15.13;;;9.60;;
16826;SDS011;8530;49.540;8.576;2023-12-20T07:28:36;9.63;;;7.90;;
16826;SDS011;8530;49.540;8.576;2023-12-20T07:31:04;8.80;;;7.90;;
16826;SDS011;8530;49.540;8.576;2023-12-20T07:33:31;8.00;;;7.17;;
16826;SDS011;8530;49.540;8.576;2023-12-20T07:35:58;24.50;;;8.90;;
16826;SDS011;8530;49.540;8.576;2023-12-20T07:38:25;9.00;;;8.17;;
16826;SDS011;8530;49.540;8.576;2023-12-20T07:40:52;10.13;;;9.20;;
16826;SDS011;8530;49.540;8.576;2023-12-20T07:43:19;12.13;;;9.00;;
16826;SDS011;8530;49.540;8.576;2023-12-20T07:45:46;7.70;;;7.00;;
16826;SDS011;8530;49.540;8.576;2023-12-20T07:48:14;14.70;;;8.90;;
16826;SDS011;8530;49.540;8.576;2023-12-20T07:50:41;9.57;;;8.00;;
16826;SDS011;8530;49.540;8.576;2023-12-20T07:53:08;14.50;;;8.40;;
16826;SDS011;8530;49.540;8.576;2023-12-20T07:55:34;12.90;;;8.70;;
16826;SDS011;8530;49.540;8.576;2023-12-20T07:58:01;13.47;;;9.27;;
16826;SDS011;8530;49.540;8.576;2023-12-20T08:00:30;10.10;;;7.73;;
16826;SDS011;8530;49.540;8.576;2023-12-20T08:02:56;12.57;;;8.43;;
16826;SDS011;8530;49.540;8.576;2023-12-20T08:05:25;8.87;;;7.53;;
16826;SDS011;8530;49.540;8.576;2023-12-20T08:07:51;14.20;;;6.60;;
16826;SDS011;8530;49.540;8.576;2023-12-20T08:10:19;9.07;;;6.83;;
16826;SDS011;8530;49.540;8.576;2023-12-20T08:12:45;8.33;;;6.47;;
16826;SDS011;8530;49.540;8.576;2023-12-20T08:15:12;15.33;;;6.30;;
16826;SDS011;8530;49.540;8.576;2023-12-20T08:17:39;14.47;;;6.70;;
16826;SDS011;8530;49.540;8.576;2023-12-20T08:20:06;7.63;;;5.63;;
16826;SDS011;8530;49.540;8.576;2023-12-20T08:22:34;10.27;;;5.80;;
16826;SDS011;8530;49.540;8.576;2023-12-20T08:25:01;7.70;;;4.73;;
16826;SDS011;8530;49.540;8.576;2023-12-20T08:27:28;7.83;;;5.70;;
16826;SDS011;8530;49.540;8.576;2023-12-20T08:29:56;8.47;;;5.47;;
16826;SDS011;8530;49.540;8.576;2023-12-20T08:32:24;8.13;;;5.30;;
16826;SDS011;8530;49.540;8.576;2023-12-20T08:34:51;5.80;;;5.20;;
16826;SDS011;8530;49.540;8.576;2023-12-20T08:37:18;18.03;;;5.67;;
16826;SDS011;8530;49.540;8.576;2023-12-20T08:39:46;8.63;;;6.40;;
16826;SDS011;8530;49.540;8.576;2023-12-20T08:42:13;8.80;;;6.07;;
16826;SDS011;8530;49.540;8.576;2023-12-20T08:44:39;6.70;;;5.93;;
16826;SDS011;8530;49.540;8.576;2023-12-20T08:47:06;19.37;;;8.53;;
16826;SDS011;8530;49.540;8.576;2023-12-20T08:49:33;11.33;;;6.30;;
16826;SDS011;8530;49.540;8.576;2023-12-20T08:52:00;9.10;;;6.63;;
16826;SDS011;8530;49.540;8.576;2023-12-20T08:54:26;12.60;;;6.60;;
16826;SDS011;8530;49.540;8.576;2023-12-20T08:56:54;14.20;;;8.30;;
16826;SDS011;8530;49.540;8.576;2023-12-20T08:59:21;14.73;;;8.17;;
16826;SDS011;8530;49.540;8.576;2023-12-20T09:01:47;11.80;;;8.50;;
16826;SDS011;8530;49.540;8.576;2023-12-20T09:04:19;12.90;;;7.43;;
16826;SDS011;8530;49.540;8.576;2023-12-20T09:06:45;12.60;;;7.90;;
16826;SDS011;8530;49.540;8.576;2023-12-20T09:09:12;14.50;;;7.23;;
16826;SDS011;8530;49.540;8.576;2023-12-20T09:11:39;11.93;;;6.83;;
16826;SDS011;8530;49.540;8.576;2023-12-20T09:14:08;9.27;;;5.67;;
16826;SDS011;8530;49.540;8.576;2023-12-20T09:16:35;6.53;;;4.57;;
16826;SDS011;8530;49.540;8.576;2023-12-20T09:19:01;5.60;;;4.07;;
16826;SDS011;8530;49.540;8.576;2023-12-20T09:21:28;4.17;;;3.17;;
16826;SDS011;8530;49.540;8.576;2023-12-20T09:23:55;5.10;;;3.07;;
16826;SDS011;8530;49.540;8.576;2023-12-20T09:26:22;11.90;;;3.90;;
16826;SDS011;8530;49.540;8.576;2023-12-20T09:28:48;9.93;;;3.23;;
16826;SDS011;8530;49.540;8.576;2023-12-20T09:31:16;5.93;;;3.07;;
16826;SDS011;8530;49.540;8.576;2023-12-20T09:33:43;10.33;;;3.30;;
16826;SDS011;8530;49.540;8.576;2023-12-20T09:36:10;6.53;;;2.77;;
16826;SDS011;8530;49.540;8.576;2023-12-20T09:38:37;7.17;;;3.50;;
16826;SDS011;8530;49.540;8.576;2023-12-20T09:41:02;7.57;;;3.57;;
16826;SDS011;8530;49.540;8.576;2023-12-20T09:43:30;4.70;;;2.77;;
16826;SDS011;8530;49.540;8.576;2023-12-20T09:45:57;9.63;;;3.87;;
16826;SDS011;8530;49.540;8.576;2023-12-20T09:48:29;6.90;;;3.30;;
16826;SDS011;8530;49.540;8.576;2023-12-20T09:50:57;6.77;;;3.70;;
16826;SDS011;8530;49.540;8.576;2023-12-20T09:53:24;7.47;;;3.63;;
16826;SDS011;8530;49.540;8.576;2023-12-20T09:55:54;9.83;;;4.03;;
16826;SDS011;8530;49.540;8.576;2023-12-20T09:58:23;7.93;;;4.30;;
16826;SDS011;8530;49.540;8.576;2023-12-20T10:00:50;9.63;;;4.50;;
16826;SDS011;8530;49.540;8.576;2023-12-20T10:03:17;6.40;;;3.30;;
16826;SDS011;8530;49.540;8.576;2023-12-20T10:05:47;7.00;;;3.50;;
16826;SDS011;8530;49.540;8.576;2023-12-20T10:08:15;8.90;;;3.37;;
16826;SDS011;8530;49.540;8.576;2023-12-20T10:10:42;6.00;;;2.77;;
16826;SDS011;8530;49.540;8.576;2023-12-20T10:13:09;12.87;;;4.03;;
16826;SDS011;8530;49.540;8.576;2023-12-20T10:15:37;2.73;;;2.17;;
16826;SDS011;8530;49.540;8.576;2023-12-20T10:18:04;5.90;;;2.70;;
16826;SDS011;8530;49.540;8.576;2023-12-20T10:20:31;5.83;;;2.87;;
16826;SDS011;8530;49.540;8.576;2023-12-20T10:23:00;6.20;;;2.90;;
16826;SDS011;8530;49.540;8.576;2023-12-20T10:25:27;8.97;;;3.10;;
16826;SDS011;8530;49.540;8.576;2023-12-20T10:28:08;7.00;;;3.07;;
16826;SDS011;8530;49.540;8.576;2023-12-20T10:30:36;8.47;;;3.17;;
16826;SDS011;8530;49.540;8.576;2023-12-20T10:33:03;8.57;;;3.40;;
16826;SDS011;8530;49.540;8.576;2023-12-20T10:35:31;4.43;;;2.40;;
16826;SDS011;8530;49.540;8.576;2023-12-20T10:38:00;6.93;;;3.00;;
16826;SDS011;8530;49.540;8.576;2023-12-20T10:40:29;8.37;;;3.03;;
16826;SDS011;8530;49.540;8.576;2023-12-20T10:42:56;8.80;;;2.80;;
16826;SDS011;8530;49.540;8.576;2023-12-20T10:45:26;12.93;;;4.20;;
16826;SDS011;8530;49.540;8.576;2023-12-20T10:47:52;6.07;;;3.07;;
16826;SDS011;8530;49.540;8.576;2023-12-20T10:50:19;13.37;;;3.80;;
16826;SDS011;8530;49.540;8.576;2023-12-20T10:52:46;5.83;;;3.20;;
16826;SDS011;8530;49.540;8.576;2023-12-20T10:55:14;8.53;;;3.47;;
16826;SDS011;8530;49.540;8.576;2023-12-20T10:57:41;7.13;;;3.13;;
16826;SDS011;8530;49.540;8.576;2023-12-20T11:00:15;10.27;;;2.97;;
16826;SDS011;8530;49.540;8.576;2023-12-20T11:02:44;5.40;;;2.93;;
16826;SDS011;8530;49.540;8.576;2023-12-20T11:05:13;8.23;;;3.83;;
16826;SDS011;8530;49.540;8.576;2023-12-20T11:07:50;5.90;;;3.03;;
16826;SDS011;8530;49.540;8.576;2023-12-20T11:10:25;5.17;;;2.70;;
16826;SDS011;8530;49.540;8.576;2023-12-20T11:12:57;10.83;;;3.27;;
16826;SDS011;8530;49.540;8.576;2023-12-20T11:15:34;9.00;;;2.77;;
16826;SDS011;8530;49.540;8.576;2023-12-20T11:18:01;5.03;;;2.70;;
16826;SDS011;8530;49.540;8.576;2023-12-20T11:20:35;7.67;;;3.50;;
16826;SDS011;8530;49.540;8.576;2023-12-20T11:23:02;7.20;;;2.73;;
16826;SDS011;8530;49.540;8.576;2023-12-20T11:25:31;4.40;;;2.80;;
16826;SDS011;8530;49.540;8.576;2023-12-20T11:28:12;7.50;;;3.83;;
16826;SDS011;8530;49.540;8.576;2023-12-20T11:30:42;5.67;;;2.90;;
16826;SDS011;8530;49.540;8.576;2023-12-20T11:33:12;6.50;;;3.23;;
16826;SDS011;8530;49.540;8.576;2023-12-20T11:35:39;5.23;;;3.17;;
16826;SDS011;8530;49.540;8.576;2023-12-20T11:38:07;11.90;;;2.70;;
16826;SDS011;8530;49.540;8.576;2023-12-20T11:40:36;8.80;;;3.47;;
16826;SDS011;8530;49.540;8.576;2023-12-20T11:43:03;7.30;;;3.10;;
16826;SDS011;8530;49.540;8.576;2023-12-20T11:45:31;7.20;;;4.33;;
16826;SDS011;8530;49.540;8.576;2023-12-20T11:47:59;6.90;;;3.33;;
16826;SDS011;8530;49.540;8.576;2023-12-20T11:50:27;12.83;;;4.50;;
16826;SDS011;8530;49.540;8.576;2023-12-20T11:52:54;10.93;;;3.70;;
16826;SDS011;8530;49.540;8.576;2023-12-20T11:55:21;4.93;;;3.73;;
16826;SDS011;8530;49.540;8.576;2023-12-20T11:57:50;8.07;;;3.37;;
16826;SDS011;8530;49.540;8.576;2023-12-20T12:00:17;7.93;;;4.00;;
16826;SDS011;8530;49.540;8.576;2023-12-20T12:02:54;10.67;;;3.63;;
16826;SDS011;8530;49.540;8.576;2023-12-20T12:05:21;5.47;;;3.13;;
16826;SDS011;8530;49.540;8.576;2023-12-20T12:07:48;7.73;;;3.90;;
16826;SDS011;8530;49.540;8.576;2023-12-20T12:10:15;7.47;;;4.23;;
16826;SDS011;8530;49.540;8.576;2023-12-20T12:12:41;14.83;;;4.87;;
16826;SDS011;8530;49.540;8.576;2023-12-20T12:15:09;9.40;;;3.10;;
16826;SDS011;8530;49.540;8.576;2023-12-20T12:17:36;9.47;;;4.13;;
16826;SDS011;8530;49.540;8.576;2023-12-20T12:20:04;11.87;;;4.37;;
16826;SDS011;8530;49.540;8.576;2023-12-20T12:22:31;9.93;;;4.00;;
16826;SDS011;8530;49.540;8.576;2023-12-20T12:24:58;5.43;;;3.77;;
16826;SDS011;8530;49.540;8.576;2023-12-20T12:27:34;7.67;;;4.00;;
16826;SDS011;8530;49.540;8.576;2023-12-20T12:30:03;10.90;;;4.50;;
16826;SDS011;8530;49.540;8.576;2023-12-20T12:32:33;8.43;;;4.53;;
16826;SDS011;8530;49.540;8.576;2023-12-20T12:35:02;14.17;;;5.17;;
16826;SDS011;8530;49.540;8.576;2023-12-20T12:37:31;18.20;;;4.63;;
16826;SDS011;8530;49.540;8.576;2023-12-20T12:40:00;12.43;;;4.83;;
16826;SDS011;8530;49.540;8.576;2023-12-20T12:42:26;8.07;;;3.77;;
16826;SDS011;8530;49.540;8.576;2023-12-20T12:44:54;7.00;;;3.77;;
16826;SDS011;8530;49.540;8.576;2023-12-20T12:47:20;8.50;;;4.60;;
16826;SDS011;8530;49.540;8.576;2023-12-20T12:49:49;10.03;;;4.50;;
16826;SDS011;8530;49.540;8.576;2023-12-20T12:52:18;4.40;;;3.00;;
16826;SDS011;8530;49.540;8.576;2023-12-20T12:54:44;11.33;;;3.10;;
16826;SDS011;8530;49.540;8.576;2023-12-20T12:57:12;5.60;;;3.40;;
16826;SDS011;8530;49.540;8.576;2023-12-20T12:59:39;15.13;;;5.23;;
16826;SDS011;8530;49.540;8.576;2023-12-20T13:02:06;7.40;;;5.50;;
16826;SDS011;8530;49.540;8.576;2023-12-20T13:04:33;8.10;;;4.27;;
16826;SDS011;8530;49.540;8.576;2023-12-20T13:07:01;7.97;;;3.90;;
16826;SDS011;8530;49.540;8.576;2023-12-20T13:09:28;10.83;;;4.60;;
16826;SDS011;8530;49.540;8.576;2023-12-20T13:11:55;7.73;;;4.30;;
16826;SDS011;8530;49.540;8.576;2023-12-20T13:14:21;9.20;;;4.83;;
16826;SDS011;8530;49.540;8.576;2023-12-20T13:16:48;6.77;;;4.70;;
16826;SDS011;8530;49.540;8.576;2023-12-20T13:19:15;13.17;;;5.37;;
16826;SDS011;8530;49.540;8.576;2023-12-20T13:21:41;8.27;;;4.37;;
16826;SDS011;8530;49.540;8.576;2023-12-20T13:24:10;10.20;;;4.20;;
16826;SDS011;8530;49.540;8.576;2023-12-20T13:26:36;10.27;;;4.20;;
16826;SDS011;8530;49.540;8.576;2023-12-20T13:29:04;14.37;;;3.50;;
16826;SDS011;8530;49.540;8.576;2023-12-20T13:31:30;7.43;;;3.90;;
16826;SDS011;8530;49.540;8.576;2023-12-20T13:33:57;10.17;;;3.97;;
16826;SDS011;8530;49.540;8.576;2023-12-20T13:36:24;8.77;;;4.53;;
16826;SDS011;8530;49.540;8.576;2023-12-20T13:38:50;16.83;;;3.73;;
16826;SDS011;8530;49.540;8.576;2023-12-20T13:41:19;12.37;;;6.27;;
16826;SDS011;8530;49.540;8.576;2023-12-20T13:43:46;13.43;;;4.67;;
16826;SDS011;8530;49.540;8.576;2023-12-20T13:46:13;13.77;;;5.83;;
16826;SDS011;8530;49.540;8.576;2023-12-20T13:48:40;17.97;;;6.23;;
16826;SDS011;8530;49.540;8.576;2023-12-20T13:51:06;14.37;;;6.80;;
16826;SDS011;8530;49.540;8.576;2023-12-20T13:53:33;12.70;;;6.43;;
16826;SDS011;8530;49.540;8.576;2023-12-20T13:56:00;6.93;;;4.00;;
16826;SDS011;8530;49.540;8.576;2023-12-20T13:58:28;15.53;;;4.83;;
16826;SDS011;8530;49.540;8.576;2023-12-20T14:00:55;10.93;;;6.13;;
16826;SDS011;8530;49.540;8.576;2023-12-20T14:03:23;8.40;;;4.50;;
16826;SDS011;8530;49.540;8.576;2023-12-20T14:05:49;8.80;;;4.30;;
16826;SDS011;8530;49.540;8.576;2023-12-20T14:08:16;12.30;;;4.03;;
16826;SDS011;8530;49.540;8.576;2023-12-20T14:10:43;7.40;;;3.63;;
16826;SDS011;8530;49.540;8.576;2023-12-20T14:13:09;6.40;;;3.60;;
16826;SDS011;8530;49.540;8.576;2023-12-20T14:15:38;7.33;;;4.70;;
16826;SDS011;8530;49.540;8.576;2023-12-20T14:18:04;4.63;;;3.20;;
16826;SDS011;8530;49.540;8.576;2023-12-20T14:20:32;10.17;;;3.40;;
16826;SDS011;8530;49.540;8.576;2023-12-20T14:23:00;5.30;;;3.73;;
16826;SDS011;8530;49.540;8.576;2023-12-20T14:25:26;11.47;;;3.50;;
16826;SDS011;8530;49.540;8.576;2023-12-20T14:27:53;7.67;;;3.37;;
16826;SDS011;8530;49.540;8.576;2023-12-20T14:30:20;9.53;;;4.53;;
16826;SDS011;8530;49.540;8.576;2023-12-20T14:32:48;8.60;;;3.07;;
16826;SDS011;8530;49.540;8.576;2023-12-20T14:35:15;4.93;;;3.10;;
16826;SDS011;8530;49.540;8.576;2023-12-20T14:37:42;14.30;;;3.60;;
16826;SDS011;8530;49.540;8.576;2023-12-20T14:40:10;12.13;;;3.63;;
16826;SDS011;8530;49.540;8.576;2023-12-20T14:42:41;12.07;;;4.03;;
16826;SDS011;8530;49.540;8.576;2023-12-20T14:45:08;5.10;;;2.80;;
16826;SDS011;8530;49.540;8.576;2023-12-20T14:47:35;5.90;;;3.63;;
16826;SDS011;8530;49.540;8.576;2023-12-20T14:50:04;8.43;;;2.80;;
16826;SDS011;8530;49.540;8.576;2023-12-20T14:52:32;7.70;;;3.70;;
16826;SDS011;8530;49.540;8.576;2023-12-20T14:54:59;9.80;;;3.00;;